Hauptseite
METAR-TAF:

METAR-TAF

Flughäfen :

Militärflugplatz Cognac-Châteaubernard

Cognac, Frankreich

Breite: 45-40N, Länge: 000-19W, Höhe: 30 m

Beobachtung

Neuester Wetterbericht von vor 26 Minuten, um 04:00 UTC
Windstille
Temperatur 1°C
Luftfeuchtigkeit 100%
Luftdruck 1009 hPa
Sichtweite: 0200 m
Nebel

METAR: LFBG 170400Z AUTO 00000KT 0250 0200 R23/M0200N FG VV/// 01/01 Q1009

Zeit: 05:26 (04:26 UTC)

Prognose

Neuester Wetterbericht von vor 14 Stunden und 26 Minuten, um 14:00 UTC
Gültige Prognose vom 15 um 15 UTC bis 16 um 15 UTC
Wind 5 kt aus Nord/Nordwest
Sichtweite 10 km oder mehr
Durchbrochene Bewölkung in der Höhe von 4000 ft
Übergehend zu
vom 16 um 00 UTC bis 16 um 02 UTC
Sichtweite: 4000 m
Durchbrochene Bewölkung in der Höhe von 500 ft
Leichtregen

TAF: LFBG 151400Z 1515/1615 33005KT 9999 BKN040 BECMG 1600/1602 4000 -RA BKN005

Wetterbeobachtungen und Prognosen von mehr als 4000 Flughäfen (METAR und TAF Bericht).

Die verfügbaren Stationen werden durch gelbe und rote Markierungen auf der Karte dargestellt.

Führen Sie die Maus auf sie, um den Namen der Station zu sehen.

Darauf klicken, um die Beobachtung von Wetterbeobachtungen und Prognosen zu sehen.

Um die Karte zu ändern : klicken Sie auf den grünen Tasten mit einem schwarzen Kreuz Zum Vergrößern, auf den grünen Button mit einem Gedankenstrich zu verkleinern, oder auf die grünen Pfeile für benachbarte Karten.


METAR-TAF: